Aviation Digital Data Service (ADDS)

Output produced by METARs form (0554 UTC 19 March 2019)
found at http://www.aviationweather.gov/metar/data/
 
Forecast for: OPDG (DERA GHAZI , PK)
Text: TAF OPDG 190357Z 1906/1924 36010KT 5000 FU FEW120 TX30/1910Z
Forecast period: 0600 UTC 19 March 2019 to 0000 UTC 20 March 2019
Forecast type: FROM: standard forecast or significant change
Winds: from the N (360 degrees) at 12 MPH (10 knots; 5.1 m/s)
Visibility: 3 miles (5 km)
Ceiling: at least 12,000 feet AGL
Clouds: few clouds at 12000 feet AGL
Weather: FU  (smoke)